Time;durP1;ratioP1;P1;durP2;ratioP2;P2;SDS_P1;SDS_P2;PMS_P1;PMS_P2;Temp;Humidity;BMP_temperature;BMP_pressure;BME280_temperature;BME280_humidity;BME280_pressure;Samples;Min_cycle;Max_cycle;Signal;HPM_P1;HPM_P2
2023/08/14 00:01:12;;;;;;;0.40;0.38;;;21.60;59.40;;;;;;6268039;28;20108;-69
2023/08/14 00:04:13;;;;;;;0.35;0.32;;;21.60;59.40;;;;;;6249887;28;20402;-69
2023/08/14 00:07:14;;;;;;;0.60;0.35;;;21.60;59.40;;;;;;6250324;28;20037;-69
2023/08/14 00:10:14;;;;;;;0.50;0.40;;;21.60;59.40;;;;;;6268046;28;20037;-69
2023/08/14 00:13:20;;;;;;;0.88;0.40;;;21.60;59.40;;;;;;6250173;28;20033;-69
2023/08/14 00:16:21;;;;;;;0.32;0.30;;;21.60;59.40;;;;;;6249833;28;20447;-69
2023/08/14 00:19:22;;;;;;;0.68;0.50;;;21.60;59.40;;;;;;6267900;28;20033;-69
2023/08/14 00:22:22;;;;;;;0.47;0.30;;;21.60;59.50;;;;;;6267714;28;20037;-69
2023/08/14 00:25:23;;;;;;;1.02;0.50;;;21.60;59.40;;;;;;6250250;28;20033;-69
2023/08/14 00:28:24;;;;;;;0.30;0.30;;;21.60;59.50;;;;;;6250017;28;20486;-69
2023/08/14 00:31:24;;;;;;;0.60;0.40;;;21.60;59.40;;;;;;6267354;28;20033;-69
2023/08/14 00:34:25;;;;;;;0.50;0.40;;;21.60;59.50;;;;;;6267604;28;20487;-69
2023/08/14 00:37:46;;;;;;;0.63;0.30;;;21.60;59.50;;;;;;6241668;28;20521;-69
2023/08/14 00:40:46;;;;;;;0.35;0.30;;;21.60;59.50;;;;;;6228706;28;20108;-68
2023/08/14 00:43:47;;;;;;;0.93;0.32;;;21.60;59.50;;;;;;6267012;28;20029;-69
2023/08/14 00:46:48;;;;;;;0.40;0.32;;;21.60;59.50;;;;;;6269543;28;20701;-69
2023/08/14 00:49:49;;;;;;;0.40;0.35;;;21.60;59.50;;;;;;6272225;28;20086;-69
2023/08/14 00:52:55;;;;;;;0.50;0.50;;;21.60;59.50;;;;;;6271982;28;20037;-69
2023/08/14 00:55:57;;;;;;;0.30;0.20;;;21.60;59.50;;;;;;6253969;28;20060;-69
2023/08/14 00:58:58;;;;;;;0.68;0.30;;;21.60;59.50;;;;;;6253996;28;20576;-69
2023/08/14 01:02:00;;;;;;;0.70;0.50;;;21.60;59.50;;;;;;6253929;28;20037;-69
2023/08/14 01:05:00;;;;;;;0.43;0.35;;;21.60;59.50;;;;;;6272063;28;20591;-69
2023/08/14 01:08:01;;;;;;;0.38;0.32;;;21.60;59.50;;;;;;6254048;28;20060;-69
2023/08/14 01:11:14;;;;;;;0.43;0.32;;;21.60;59.50;;;;;;6253936;28;20029;-69
2023/08/14 01:14:30;;;;;;;0.30;0.30;;;21.60;59.50;;;;;;6271556;28;20025;-69
2023/08/14 01:17:34;;;;;;;0.30;0.20;;;21.60;59.50;;;;;;6253657;28;20094;-69
2023/08/14 01:20:37;;;;;;;0.47;0.38;;;21.60;59.50;;;;;;6272175;28;20074;-69
2023/08/14 01:23:49;;;;;;;2.45;0.40;;;21.60;59.50;;;;;;6253560;28;20033;-69
2023/08/14 01:26:51;;;;;;;0.45;0.30;;;21.60;59.50;;;;;;6253593;28;20041;-69
2023/08/14 01:30:01;;;;;;;0.57;0.40;;;21.60;59.50;;;;;;6270997;28;20056;-69
2023/08/14 01:33:02;;;;;;;0.30;0.30;;;21.60;59.50;;;;;;6253697;28;20040;-69
2023/08/14 01:36:10;;;;;;;0.40;0.30;;;21.60;59.50;;;;;;6271199;28;20033;-69
2023/08/14 01:39:16;;;;;;;0.40;0.40;;;21.60;59.60;;;;;;6271323;28;20041;-69
2023/08/14 01:42:23;;;;;;;0.20;0.20;;;21.60;59.50;;;;;;6271205;28;20474;-69
2023/08/14 01:45:27;;;;;;;0.30;0.30;;;21.60;59.60;;;;;;6253151;28;20025;-69
2023/08/14 01:48:28;;;;;;;0.30;0.22;;;21.60;59.60;;;;;;6271014;28;20033;-69
2023/08/14 01:51:30;;;;;;;0.30;0.30;;;21.60;59.60;;;;;;6253476;28;20028;-69
2023/08/14 01:54:31;;;;;;;0.30;0.30;;;21.60;59.60;;;;;;6252863;28;20047;-68
2023/08/14 01:57:33;;;;;;;0.40;0.40;;;21.60;59.60;;;;;;6269820;28;20033;-68
2023/08/14 02:00:34;;;;;;;0.40;0.30;;;21.60;59.50;;;;;;6270407;28;20114;-68
2023/08/14 02:03:35;;;;;;;0.30;0.30;;;21.60;59.60;;;;;;6270695;28;20028;-69
2023/08/14 02:06:36;;;;;;;0.20;0.20;;;21.60;59.50;;;;;;6252614;28;20076;-69
2023/08/14 02:09:37;;;;;;;0.40;0.40;;;21.60;59.60;;;;;;6270454;28;20044;-69
2023/08/14 02:12:38;;;;;;;0.30;0.30;;;21.60;59.60;;;;;;6252559;28;20033;-69
2023/08/14 02:15:38;;;;;;;0.40;0.30;;;21.60;59.60;;;;;;6269989;28;20029;-69
2023/08/14 02:18:39;;;;;;;0.50;0.40;;;21.60;59.60;;;;;;6270233;28;20037;-69
2023/08/14 02:21:40;;;;;;;0.30;0.30;;;21.60;59.60;;;;;;6270450;28;20041;-69
2023/08/14 02:24:40;;;;;;;0.20;0.20;;;21.60;59.60;;;;;;6252326;28;20029;-69
2023/08/14 02:27:41;;;;;;;0.30;0.30;;;21.60;59.60;;;;;;6252057;28;20087;-69
2023/08/14 02:30:42;;;;;;;0.30;0.30;;;21.60;59.60;;;;;;6270095;28;20120;-69
2023/08/14 02:33:42;;;;;;;0.40;0.40;;;21.60;59.60;;;;;;6270604;28;20056;-69
2023/08/14 02:36:43;;;;;;;0.90;0.40;;;21.60;59.60;;;;;;6252242;28;20568;-69
2023/08/14 02:39:45;;;;;;;0.30;0.30;;;21.60;59.60;;;;;;6244727;28;20034;-69
2023/08/14 02:42:45;;;;;;;0.25;0.25;;;21.60;59.60;;;;;;6248268;28;20371;-69
2023/08/14 02:45:46;;;;;;;0.40;0.40;;;21.60;59.60;;;;;;6269627;28;20033;-69
2023/08/14 02:48:47;;;;;;;0.30;0.30;;;21.60;59.60;;;;;;6269347;28;20055;-69
2023/08/14 02:51:47;;;;;;;0.43;0.30;;;21.60;59.60;;;;;;6269804;28;20033;-69
2023/08/14 02:54:48;;;;;;;0.30;0.30;;;21.60;59.70;;;;;;6269632;28;20529;-69
2023/08/14 02:57:49;;;;;;;0.40;0.30;;;21.60;59.60;;;;;;6269271;28;20029;-69
2023/08/14 03:00:50;;;;;;;0.30;0.30;;;21.60;59.60;;;;;;6251583;28;20036;-69
2023/08/14 03:03:51;;;;;;;0.20;0.20;;;21.60;59.70;;;;;;6269087;28;20079;-69
2023/08/14 03:06:51;;;;;;;0.57;0.40;;;21.60;59.70;;;;;;6269210;28;20041;-69
2023/08/14 03:09:53;;;;;;;0.40;0.30;;;21.60;59.70;;;;;;6268767;28;20104;-69
2023/08/14 03:12:53;;;;;;;0.30;0.30;;;21.60;59.70;;;;;;6269084;28;20448;-69
2023/08/14 03:15:54;;;;;;;0.60;0.40;;;21.60;59.70;;;;;;6250864;28;20047;-68
2023/08/14 03:18:55;;;;;;;0.40;0.40;;;21.60;59.70;;;;;;6251178;28;20021;-69
2023/08/14 03:21:55;;;;;;;0.40;0.40;;;21.60;59.70;;;;;;6251360;28;20044;-68
2023/08/14 03:24:56;;;;;;;0.30;0.30;;;21.60;59.70;;;;;;6250801;28;20056;-69
2023/08/14 03:27:57;;;;;;;0.30;0.30;;;21.60;59.70;;;;;;6269404;28;20037;-69
2023/08/14 03:30:58;;;;;;;0.20;0.20;;;21.60;59.70;;;;;;6268751;28;20025;-69
2023/08/14 03:33:59;;;;;;;0.20;0.20;;;21.60;59.70;;;;;;6268711;28;20402;-69
2023/08/14 03:36:59;;;;;;;0.43;0.30;;;21.60;59.70;;;;;;6249922;28;20033;-68
2023/08/14 03:40:00;;;;;;;0.20;0.20;;;21.60;59.70;;;;;;6268757;28;20029;-68
2023/08/14 03:43:01;;;;;;;0.43;0.40;;;21.60;59.70;;;;;;6268373;28;20044;-68
2023/08/14 03:46:01;;;;;;;0.40;0.30;;;21.60;59.70;;;;;;6250975;28;20033;-69
2023/08/14 03:49:04;;;;;;;0.20;0.20;;;21.60;59.70;;;;;;6268419;28;20110;-69
2023/08/14 03:52:04;;;;;;;0.30;0.30;;;21.60;59.70;;;;;;6268116;28;20079;-68
2023/08/14 03:55:05;;;;;;;0.60;0.40;;;21.60;59.70;;;;;;6268500;28;20036;-69
2023/08/14 03:58:06;;;;;;;0.30;0.30;;;21.60;59.70;;;;;;6268303;28;20044;-69
2023/08/14 04:01:07;;;;;;;0.38;0.35;;;21.60;59.70;;;;;;6268517;28;20063;-69
2023/08/14 04:04:07;;;;;;;0.32;0.30;;;21.60;59.70;;;;;;6268015;28;20045;-69
2023/08/14 04:07:08;;;;;;;0.50;0.30;;;21.60;59.80;;;;;;6268418;28;20087;-68
2023/08/14 04:10:09;;;;;;;0.25;0.25;;;21.60;59.70;;;;;;6250086;28;20045;-68
2023/08/14 04:13:09;;;;;;;0.38;0.30;;;21.60;59.80;;;;;;6250501;28;20127;-69
2023/08/14 04:16:11;;;;;;;0.30;0.30;;;21.60;59.80;;;;;;6267664;28;20040;-69
2023/08/14 04:19:18;;;;;;;0.50;0.47;;;21.60;59.70;;;;;;6249990;28;20494;-69
2023/08/14 04:22:19;;;;;;;0.30;0.30;;;21.60;59.80;;;;;;6270899;28;20112;-68
2023/08/14 04:25:20;;;;;;;0.32;0.30;;;21.60;59.70;;;;;;6273249;28;20037;-69
2023/08/14 04:28:20;;;;;;;0.30;0.20;;;21.60;59.70;;;;;;6272799;28;20040;-68
2023/08/14 04:31:22;;;;;;;0.40;0.30;;;21.60;59.70;;;;;;6272799;28;20028;-69
2023/08/14 04:34:23;;;;;;;0.57;0.40;;;21.60;59.70;;;;;;6273601;28;20029;-69
2023/08/14 04:37:23;;;;;;;0.47;0.30;;;21.60;59.80;;;;;;6274252;28;20081;-69
2023/08/14 04:40:24;;;;;;;0.38;0.38;;;21.60;59.80;;;;;;6255095;28;20044;-69
2023/08/14 04:43:25;;;;;;;0.35;0.30;;;21.60;59.80;;;;;;6255467;28;20549;-68
2023/08/14 04:46:36;;;;;;;0.75;0.40;;;21.60;59.80;;;;;;6272398;28;20032;-69
2023/08/14 04:49:37;;;;;;;0.28;0.28;;;21.60;59.80;;;;;;6272198;28;20166;-69
2023/08/14 04:52:38;;;;;;;0.68;0.50;;;21.60;59.80;;;;;;6254418;28;20088;-69
2023/08/14 04:55:38;;;;;;;0.35;0.35;;;21.60;59.80;;;;;;6272389;28;20489;-69
2023/08/14 04:58:39;;;;;;;0.22;0.22;;;21.60;59.80;;;;;;6271636;28;20037;-69
2023/08/14 05:01:40;;;;;;;0.63;0.40;;;21.60;59.80;;;;;;6271477;28;20037;-68
2023/08/14 05:04:41;;;;;;;0.30;0.30;;;21.60;59.80;;;;;;6271939;28;20196;-69
2023/08/14 05:07:42;;;;;;;2.22;0.30;;;21.60;59.80;;;;;;6272437;28;20124;-68
2023/08/14 05:10:43;;;;;;;0.32;0.30;;;21.60;59.80;;;;;;6252950;28;20064;-69
2023/08/14 05:13:44;;;;;;;0.63;0.30;;;21.60;59.80;;;;;;6271928;28;20397;-69
2023/08/14 05:16:45;;;;;;;0.45;0.32;;;21.60;59.80;;;;;;6271983;28;20032;-69
2023/08/14 05:19:46;;;;;;;0.30;0.30;;;21.60;59.80;;;;;;6272685;28;20536;-69
2023/08/14 05:22:47;;;;;;;0.35;0.35;;;21.60;59.80;;;;;;6271688;28;20122;-69
2023/08/14 05:25:48;;;;;;;0.35;0.30;;;21.60;59.80;;;;;;6271738;28;20414;-69
2023/08/14 05:28:49;;;;;;;0.40;0.30;;;21.60;59.80;;;;;;6271756;28;20025;-69
2023/08/14 05:31:49;;;;;;;0.47;0.47;;;21.60;59.80;;;;;;6271090;28;20494;-69
2023/08/14 05:34:50;;;;;;;0.30;0.30;;;21.60;59.80;;;;;;6271557;28;20078;-69
2023/08/14 05:37:57;;;;;;;0.65;0.30;;;21.60;59.80;;;;;;6271077;28;20029;-69
2023/08/14 05:40:58;;;;;;;0.40;0.40;;;21.60;59.80;;;;;;6271240;28;20033;-69
2023/08/14 05:43:59;;;;;;;0.28;0.28;;;21.60;59.80;;;;;;6253063;28;20083;-69
2023/08/14 05:46:59;;;;;;;0.32;0.32;;;21.60;59.80;;;;;;6271119;28;20275;-69
2023/08/14 05:50:00;;;;;;;0.60;0.40;;;21.60;59.80;;;;;;6253486;28;20128;-69
2023/08/14 05:53:05;;;;;;;4.03;0.40;;;21.60;59.90;;;;;;6271334;28;20111;-69
2023/08/14 05:56:05;;;;;;;0.40;0.40;;;21.60;59.80;;;;;;6271217;28;20041;-69
2023/08/14 05:59:06;;;;;;;0.30;0.30;;;21.60;59.80;;;;;;6269843;28;20060;-69
2023/08/14 06:02:07;;;;;;;0.38;0.30;;;21.60;59.80;;;;;;6267192;28;20107;-68
2023/08/14 06:05:08;;;;;;;0.47;0.40;;;21.60;59.80;;;;;;6255266;28;20045;-69
2023/08/14 06:08:10;;;;;;;0.40;0.40;;;21.60;59.80;;;;;;6268963;28;20034;-69
2023/08/14 06:11:10;;;;;;;0.30;0.30;;;21.60;59.80;;;;;;6272398;28;20033;-69
2023/08/14 06:14:11;;;;;;;0.40;0.30;;;21.60;59.80;;;;;;6254738;28;21356;-69
2023/08/14 06:17:12;;;;;;;0.30;0.30;;;21.60;59.80;;;;;;6272095;28;20536;-69
2023/08/14 06:20:12;;;;;;;0.50;0.40;;;21.60;59.80;;;;;;6272460;28;20158;-69
2023/08/14 06:23:13;;;;;;;0.32;0.30;;;21.60;59.80;;;;;;6272782;28;20514;-69
2023/08/14 06:26:14;;;;;;;0.30;0.30;;;21.60;59.80;;;;;;6272505;28;20041;-69
2023/08/14 06:29:15;;;;;;;0.38;0.38;;;21.60;59.80;;;;;;6272545;28;20393;-69
2023/08/14 06:32:15;;;;;;;0.50;0.40;;;21.60;59.80;;;;;;6272318;28;20021;-69
2023/08/14 06:35:16;;;;;;;0.20;0.20;;;21.60;59.80;;;;;;6272475;28;20061;-69
2023/08/14 06:38:17;;;;;;;0.30;0.30;;;21.60;59.90;;;;;;6255040;28;20075;-69
2023/08/14 06:41:18;;;;;;;0.45;0.40;;;21.60;59.80;;;;;;6273363;28;20078;-69
2023/08/14 06:44:18;;;;;;;0.20;0.20;;;21.60;59.90;;;;;;6271971;28;20031;-69
2023/08/14 06:47:21;;;;;;;0.30;0.30;;;21.60;59.90;;;;;;6273099;28;20536;-69
2023/08/14 06:50:23;;;;;;;1.38;0.30;;;21.60;59.90;;;;;;6272668;28;20086;-69
2023/08/14 06:53:23;;;;;;;0.45;0.40;;;21.60;59.90;;;;;;6254716;28;20040;-68
2023/08/14 06:56:25;;;;;;;0.50;0.30;;;21.60;59.90;;;;;;6254768;28;20041;-69
2023/08/14 06:59:25;;;;;;;0.38;0.38;;;21.60;59.90;;;;;;6272387;28;20086;-69
2023/08/14 07:02:26;;;;;;;0.22;0.22;;;21.60;59.90;;;;;;6254884;28;20029;-69
2023/08/14 07:05:26;;;;;;;0.40;0.30;;;21.60;59.90;;;;;;6272140;28;20559;-69
2023/08/14 07:08:28;;;;;;;0.30;0.30;;;21.60;59.90;;;;;;6254431;28;20371;-69
2023/08/14 07:11:36;;;;;;;0.40;0.35;;;21.60;59.90;;;;;;6271114;28;20033;-69
2023/08/14 07:14:37;;;;;;;0.35;0.32;;;21.60;59.90;;;;;;6271253;28;20024;-69
2023/08/14 07:17:37;;;;;;;0.20;0.20;;;21.60;59.90;;;;;;6270643;28;20048;-69
2023/08/14 07:20:38;;;;;;;0.30;0.30;;;21.60;60.00;;;;;;6271743;28;20447;-69
2023/08/14 07:23:39;;;;;;;0.45;0.40;;;21.60;59.90;;;;;;6271139;28;20544;-69
2023/08/14 07:26:40;;;;;;;0.28;0.28;;;21.60;59.90;;;;;;6271564;28;20037;-69
2023/08/14 07:29:41;;;;;;;0.30;0.30;;;21.60;60.00;;;;;;6270829;28;20030;-69
2023/08/14 07:32:42;;;;;;;0.20;0.20;;;21.60;59.90;;;;;;6252927;28;20040;-69
2023/08/14 07:35:43;;;;;;;0.40;0.40;;;21.60;59.90;;;;;;6270855;28;20444;-69
2023/08/14 07:38:43;;;;;;;0.22;0.20;;;21.60;60.00;;;;;;6253324;28;20037;-69
2023/08/14 07:41:44;;;;;;;0.30;0.30;;;21.60;60.00;;;;;;6270717;28;20622;-69
2023/08/14 07:44:45;;;;;;;0.45;0.35;;;21.60;59.90;;;;;;6270886;28;20086;-69
2023/08/14 07:47:45;;;;;;;0.38;0.38;;;21.60;59.90;;;;;;6270357;28;20119;-69
2023/08/14 07:50:52;;;;;;;0.30;0.20;;;21.60;60.00;;;;;;6270753;28;20028;-69
2023/08/14 07:53:53;;;;;;;0.22;0.22;;;21.60;59.90;;;;;;6270718;28;20033;-69
2023/08/14 07:56:54;;;;;;;0.38;0.38;;;21.60;59.90;;;;;;6269774;28;20028;-69
2023/08/14 07:59:54;;;;;;;0.20;0.20;;;21.60;60.00;;;;;;6252815;28;20033;-69
2023/08/14 08:02:55;;;;;;;0.30;0.30;;;21.60;60.00;;;;;;6270609;28;20056;-68
2023/08/14 08:05:56;;;;;;;0.40;0.38;;;21.60;60.00;;;;;;6252358;28;20053;-69
2023/08/14 08:08:57;;;;;;;0.30;0.30;;;21.60;60.00;;;;;;6252215;28;20126;-69
2023/08/14 08:11:58;;;;;;;0.47;0.40;;;21.60;60.00;;;;;;6270230;28;20037;-69
2023/08/14 08:14:59;;;;;;;0.63;0.35;;;21.60;60.00;;;;;;6252113;28;20048;-69
2023/08/14 08:18:00;;;;;;;0.30;0.30;;;21.60;60.00;;;;;;6251407;28;20094;-69
2023/08/14 08:21:01;;;;;;;0.35;0.35;;;21.60;60.00;;;;;;6252553;28;20320;-69
2023/08/14 08:24:01;;;;;;;0.30;0.30;;;21.60;59.90;;;;;;6270186;28;20401;-68
2023/08/14 08:27:02;;;;;;;0.30;0.30;;;21.60;59.90;;;;;;6269886;28;20033;-69
2023/08/14 08:30:03;;;;;;;0.30;0.30;;;21.60;59.90;;;;;;6252263;28;20140;-69
2023/08/14 08:33:04;;;;;;;0.50;0.40;;;21.60;60.00;;;;;;6270049;28;20095;-69
2023/08/14 08:36:05;;;;;;;0.50;0.40;;;21.60;60.00;;;;;;6270146;28;20482;-69
2023/08/14 08:39:05;;;;;;;0.22;0.20;;;21.60;59.90;;;;;;6269574;28;20063;-70
2023/08/14 08:42:11;;;;;;;0.25;0.25;;;21.60;60.00;;;;;;6252412;28;20121;-69
2023/08/14 08:45:15;;;;;;;0.32;0.30;;;21.60;59.90;;;;;;6252220;28;20041;-69
2023/08/14 08:48:20;;;;;;;0.20;0.20;;;21.60;60.00;;;;;;6270217;28;20086;-69
2023/08/14 08:51:23;;;;;;;0.28;0.28;;;21.60;60.00;;;;;;6269896;28;20033;-69
2023/08/14 08:54:25;;;;;;;0.55;0.20;;;21.60;59.90;;;;;;6252194;28;20037;-69
2023/08/14 08:57:26;;;;;;;0.25;0.25;;;21.60;59.90;;;;;;6269733;28;20044;-69
2023/08/14 09:00:28;;;;;;;0.50;0.30;;;21.60;60.00;;;;;;6270033;28;20025;-69
2023/08/14 09:03:28;;;;;;;0.40;0.40;;;21.60;60.00;;;;;;6269877;28;20501;-69
2023/08/14 09:06:30;;;;;;;0.30;0.30;;;21.60;60.00;;;;;;6252045;28;20041;-69
2023/08/14 09:09:31;;;;;;;0.25;0.20;;;21.60;60.00;;;;;;6274062;28;20025;-69
2023/08/14 09:12:31;;;;;;;0.35;0.30;;;21.60;60.00;;;;;;6256774;28;20032;-69
2023/08/14 09:15:32;;;;;;;0.40;0.40;;;21.60;59.90;;;;;;6273752;28;20025;-69
2023/08/14 09:18:33;;;;;;;0.40;0.30;;;21.60;60.00;;;;;;6255607;28;20136;-68
2023/08/14 09:21:33;;;;;;;0.20;0.20;;;21.60;60.00;;;;;;6274432;28;20389;-69
2023/08/14 09:24:35;;;;;;;0.50;0.30;;;21.60;60.00;;;;;;6273914;28;20021;-69
2023/08/14 09:27:36;;;;;;;0.30;0.25;;;21.60;60.00;;;;;;6256140;28;20525;-69
2023/08/14 09:30:38;;;;;;;0.28;0.28;;;21.60;60.00;;;;;;6273703;28;20059;-69
2023/08/14 09:33:40;;;;;;;0.20;0.20;;;21.60;60.00;;;;;;6273359;28;20108;-69
2023/08/14 09:36:41;;;;;;;0.20;0.20;;;21.60;60.00;;;;;;6273636;28;20482;-69
2023/08/14 09:39:43;;;;;;;0.20;0.20;;;21.60;60.00;;;;;;6273418;28;20163;-70
2023/08/14 09:42:45;;;;;;;0.35;0.20;;;21.60;60.00;;;;;;6273507;28;20033;-69
2023/08/14 09:45:47;;;;;;;0.22;0.20;;;21.60;60.00;;;;;;6273506;28;20029;-69
2023/08/14 09:48:48;;;;;;;0.20;0.20;;;21.60;60.00;;;;;;6273307;28;20467;-69
2023/08/14 09:51:56;;;;;;;0.30;0.30;;;21.60;60.00;;;;;;6255763;28;20504;-69
2023/08/14 09:54:59;;;;;;;0.32;0.20;;;21.60;60.00;;;;;;6273243;28;20059;-69
2023/08/14 09:57:59;;;;;;;0.35;0.22;;;21.60;60.00;;;;;;6273026;28;20061;-69
2023/08/14 10:01:00;;;;;;;0.20;0.20;;;21.60;60.00;;;;;;6272857;28;20043;-69
2023/08/14 10:04:02;;;;;;;0.20;0.20;;;21.60;60.00;;;;;;6255573;28;20055;-69
2023/08/14 10:07:03;;;;;;;0.20;0.20;;;21.60;60.00;;;;;;6272944;28;20021;-71
2023/08/14 10:10:07;;;;;;;0.17;0.17;;;21.60;60.00;;;;;;6272778;28;20179;-70
2023/08/14 10:13:09;;;;;;;0.30;0.30;;;21.60;60.00;;;;;;6272693;28;20029;-70
2023/08/14 10:16:16;;;;;;;0.20;0.20;;;21.60;60.00;;;;;;6272570;28;20397;-70
2023/08/14 10:19:23;;;;;;;0.50;0.30;;;21.60;60.00;;;;;;6253506;28;20037;-71
2023/08/14 10:22:24;;;;;;;0.32;0.28;;;21.60;60.00;;;;;;6273070;28;20154;-70
2023/08/14 10:25:25;;;;;;;0.40;0.40;;;21.60;60.00;;;;;;6254306;28;20071;-70
2023/08/14 10:28:26;;;;;;;0.43;0.30;;;21.60;60.00;;;;;;6254529;28;20448;-71
2023/08/14 10:31:29;;;;;;;0.13;0.13;;;21.60;60.00;;;;;;6254899;28;20090;-70
2023/08/14 10:34:32;;;;;;;0.30;0.30;;;21.60;60.00;;;;;;6272541;28;20119;-71
2023/08/14 10:37:47;;;;;;;0.20;0.20;;;21.60;60.00;;;;;;6272501;28;20111;-70
2023/08/14 10:40:52;;;;;;;0.20;0.20;;;21.60;60.00;;;;;;6254045;28;20025;-70
2023/08/14 10:43:56;;;;;;;0.17;0.17;;;21.60;60.00;;;;;;6271955;28;20029;-70
2023/08/14 10:47:05;;;;;;;0.50;0.40;;;21.60;60.00;;;;;;6272732;28;20029;-71
2023/08/14 10:50:17;;;;;;;0.17;0.17;;;21.60;60.00;;;;;;6272131;28;20044;-70
2023/08/14 10:53:18;;;;;;;0.30;0.30;;;21.60;60.00;;;;;;6271934;28;20048;-70
2023/08/14 10:56:19;;;;;;;0.20;0.20;;;21.60;60.80;;;;;;6253624;28;20383;-70
2023/08/14 10:59:26;;;;;;;0.20;0.20;;;21.60;60.00;;;;;;6271789;28;20375;-70
2023/08/14 11:02:29;;;;;;;0.22;0.22;;;21.60;60.00;;;;;;6254003;28;20467;-70
2023/08/14 11:05:37;;;;;;;0.38;0.25;;;21.60;60.00;;;;;;6271373;28;20127;-70
2023/08/14 11:08:38;;;;;;;0.30;0.30;;;21.60;60.00;;;;;;6253674;28;20032;-71
2023/08/14 11:11:43;;;;;;;0.25;0.25;;;21.60;60.00;;;;;;6253374;28;20029;-71
2023/08/14 11:14:45;;;;;;;0.20;0.20;;;21.60;60.00;;;;;;6271301;28;20029;-70
2023/08/14 11:17:47;;;;;;;0.22;0.22;;;21.60;60.00;;;;;;6270921;28;20033;-71
2023/08/14 11:20:48;;;;;;;0.30;0.30;;;21.60;60.00;;;;;;6271020;28;20029;-70
2023/08/14 11:23:49;;;;;;;0.20;0.20;;;21.60;60.00;;;;;;6271128;28;20032;-71
2023/08/14 11:26:49;;;;;;;0.17;0.17;;;21.60;60.00;;;;;;6271089;28;20029;-70
2023/08/14 11:29:51;;;;;;;0.25;0.20;;;21.60;60.00;;;;;;6270771;28;20072;-70
2023/08/14 11:32:53;;;;;;;0.38;0.28;;;21.60;60.00;;;;;;6253172;28;20037;-71
2023/08/14 11:35:54;;;;;;;0.20;0.20;;;21.60;60.00;;;;;;6270717;28;20068;-71
2023/08/14 11:38:55;;;;;;;0.30;0.30;;;21.60;60.00;;;;;;6252931;28;20425;-71
2023/08/14 11:41:56;;;;;;;0.13;0.13;;;21.60;60.00;;;;;;6271113;28;20052;-70
2023/08/14 11:44:56;;;;;;;0.20;0.20;;;21.60;60.00;;;;;;6252880;28;20037;-70
2023/08/14 11:47:57;;;;;;;0.25;0.25;;;21.60;60.00;;;;;;6270522;28;20044;-71
2023/08/14 11:50:58;;;;;;;0.20;0.20;;;21.60;60.00;;;;;;6270460;28;20033;-71
2023/08/14 11:54:00;;;;;;;0.10;0.10;;;21.60;60.00;;;;;;6270373;28;20410;-70
2023/08/14 11:57:05;;;;;;;0.20;0.20;;;21.60;60.00;;;;;;6270390;28;20432;-71
2023/08/14 12:00:10;;;;;;;0.20;0.20;;;21.60;60.00;;;;;;6270847;28;20555;-70
2023/08/14 12:03:11;;;;;;;0.20;0.20;;;21.60;60.00;;;;;;6252494;28;20446;-70
2023/08/14 12:06:12;;;;;;;0.25;0.17;;;21.60;60.00;;;;;;6252445;28;20036;-70
2023/08/14 12:09:12;;;;;;;0.40;0.30;;;21.60;60.00;;;;;;6270134;28;20071;-71
2023/08/14 12:12:14;;;;;;;0.30;0.25;;;21.60;60.00;;;;;;6268742;28;20037;-71
2023/08/14 12:15:21;;;;;;;0.20;0.20;;;21.60;60.00;;;;;;6270337;28;20065;-70
2023/08/14 12:18:23;;;;;;;0.20;0.20;;;21.60;60.00;;;;;;6270019;28;20119;-70
2023/08/14 12:21:27;;;;;;;0.20;0.20;;;21.60;60.00;;;;;;6270123;28;20039;-70
2023/08/14 12:24:37;;;;;;;0.20;0.20;;;21.60;60.00;;;;;;6269955;28;20040;-70
2023/08/14 12:27:37;;;;;;;0.38;0.30;;;21.60;60.00;;;;;;6269936;28;20021;-70
2023/08/14 12:30:38;;;;;;;0.22;0.20;;;21.60;60.00;;;;;;6270104;28;20043;-71
2023/08/14 12:33:41;;;;;;;0.13;0.13;;;21.60;60.00;;;;;;6269852;28;20040;-71
2023/08/14 12:36:42;;;;;;;0.35;0.35;;;21.60;60.00;;;;;;6268951;28;20033;-71
2023/08/14 12:39:45;;;;;;;0.20;0.20;;;21.60;60.00;;;;;;6268762;28;20114;-70
2023/08/14 12:42:46;;;;;;;0.45;0.28;;;21.60;60.00;;;;;;6270381;28;20029;-70
2023/08/14 12:45:46;;;;;;;0.63;0.47;;;21.60;60.00;;;;;;6274693;28;20066;-70
2023/08/14 12:48:47;;;;;;;0.20;0.20;;;21.60;60.00;;;;;;6269444;28;20119;-69
2023/08/14 12:51:48;;;;;;;0.20;0.20;;;21.60;60.00;;;;;;6274690;28;20087;-70
2023/08/14 12:54:49;;;;;;;0.10;0.10;;;21.60;60.00;;;;;;6272689;28;20040;-70
2023/08/14 12:57:50;;;;;;;0.20;0.20;;;21.60;60.00;;;;;;6272967;28;20098;-70
2023/08/14 13:00:51;;;;;;;0.10;0.10;;;21.60;60.00;;;;;;6274293;28;20033;-70
2023/08/14 13:03:52;;;;;;;0.28;0.20;;;21.60;60.00;;;;;;6255966;28;20028;-70
2023/08/14 13:06:53;;;;;;;0.20;0.20;;;21.60;60.00;;;;;;6274242;28;20482;-71
2023/08/14 13:09:54;;;;;;;0.30;0.25;;;21.60;60.00;;;;;;6274117;28;20083;-70
2023/08/14 13:12:56;;;;;;;0.30;0.30;;;21.60;60.00;;;;;;6274032;28;20064;-70
2023/08/14 13:15:58;;;;;;;0.20;0.15;;;21.60;60.00;;;;;;6272334;28;20498;-69
2023/08/14 13:18:58;;;;;;;0.38;0.35;;;21.60;60.00;;;;;;6272426;28;20029;-70
2023/08/14 13:21:59;;;;;;;0.30;0.30;;;21.60;60.00;;;;;;6274008;28;20029;-70
2023/08/14 13:25:00;;;;;;;0.20;0.20;;;21.60;60.00;;;;;;6273609;28;20025;-70
2023/08/14 13:28:00;;;;;;;0.20;0.20;;;21.60;60.00;;;;;;6273941;28;20399;-70
2023/08/14 13:31:05;;;;;;;0.10;0.10;;;21.60;60.00;;;;;;6272901;28;20033;-70
2023/08/14 13:34:05;;;;;;;0.30;0.30;;;21.60;60.00;;;;;;6273683;28;20541;-70
2023/08/14 13:37:06;;;;;;;0.65;0.28;;;21.60;60.00;;;;;;6272950;28;20028;-70
2023/08/14 13:40:08;;;;;;;0.73;0.40;;;21.60;60.00;;;;;;6273538;28;20021;-69
2023/08/14 13:43:08;;;;;;;0.17;0.17;;;21.60;60.00;;;;;;6273067;28;20486;-70
2023/08/14 13:46:09;;;;;;;0.28;0.28;;;21.60;60.00;;;;;;6273172;28;20064;-69
2023/08/14 13:49:10;;;;;;;0.20;0.20;;;21.60;60.80;;;;;;6271763;28;20029;-70
2023/08/14 13:52:12;;;;;;;0.50;0.40;;;21.60;60.00;;;;;;6271960;28;20041;-70
2023/08/14 13:55:13;;;;;;;0.20;0.20;;;21.60;60.00;;;;;;6272415;28;20033;-70
2023/08/14 13:58:14;;;;;;;0.20;0.20;;;21.60;59.90;;;;;;6255107;28;20076;-69
2023/08/14 14:01:15;;;;;;;0.30;0.30;;;21.60;59.90;;;;;;6272471;28;20025;-70
2023/08/14 14:04:15;;;;;;;0.30;0.30;;;21.60;60.00;;;;;;6272671;28;20053;-69
2023/08/14 14:07:16;;;;;;;0.47;0.40;;;21.60;60.00;;;;;;6272795;28;20456;-69
2023/08/14 14:10:17;;;;;;;0.75;0.20;;;21.60;60.00;;;;;;6272488;28;20040;-70
2023/08/14 14:13:17;;;;;;;0.60;0.38;;;21.60;60.00;;;;;;6272780;28;20501;-70
2023/08/14 14:16:22;;;;;;;0.22;0.22;;;21.60;60.00;;;;;;6272627;28;20033;-70
2023/08/14 14:19:24;;;;;;;0.50;0.22;;;21.60;60.00;;;;;;6272477;28;20140;-70
2023/08/14 14:22:25;;;;;;;0.20;0.20;;;21.60;60.00;;;;;;6272037;28;20025;-70
2023/08/14 14:25:26;;;;;;;0.38;0.30;;;21.60;60.00;;;;;;6272149;28;20049;-70
2023/08/14 14:28:27;;;;;;;1.20;0.40;;;21.60;60.00;;;;;;6272138;28;20033;-70
2023/08/14 14:31:27;;;;;;;0.47;0.30;;;21.60;60.80;;;;;;6272020;28;20468;-70
2023/08/14 14:34:28;;;;;;;1.00;0.30;;;21.60;60.00;;;;;;6270599;28;20029;-70
2023/08/14 14:37:29;;;;;;;0.65;0.40;;;21.60;60.00;;;;;;6271995;28;20056;-70
2023/08/14 14:40:29;;;;;;;0.85;0.45;;;21.60;60.00;;;;;;6270726;28;20063;-70
2023/08/14 14:43:30;;;;;;;0.40;0.30;;;21.60;60.00;;;;;;6271743;28;20099;-70
2023/08/14 14:46:31;;;;;;;0.73;0.35;;;21.60;60.00;;;;;;6271686;28;20494;-70
2023/08/14 14:49:31;;;;;;;0.35;0.30;;;21.60;60.00;;;;;;6271252;28;20478;-70
2023/08/14 14:52:32;;;;;;;0.30;0.30;;;21.60;60.00;;;;;;6271545;28;20071;-70
2023/08/14 14:55:33;;;;;;;0.40;0.40;;;21.60;60.00;;;;;;6271447;28;20395;-69
2023/08/14 14:58:33;;;;;;;0.47;0.30;;;21.60;60.00;;;;;;6271169;28;20036;-69
2023/08/14 15:01:34;;;;;;;0.30;0.30;;;21.60;60.00;;;;;;6271509;28;20107;-70
2023/08/14 15:04:35;;;;;;;0.28;0.20;;;21.60;60.00;;;;;;6269047;28;20056;-70
2023/08/14 15:07:35;;;;;;;0.30;0.30;;;21.60;60.00;;;;;;6271190;28;20143;-70
2023/08/14 15:10:36;;;;;;;0.40;0.30;;;21.60;60.00;;;;;;6271274;28;20476;-70
2023/08/14 15:13:37;;;;;;;0.40;0.40;;;21.60;60.00;;;;;;6271164;28;20033;-70
2023/08/14 15:16:37;;;;;;;0.52;0.38;;;21.60;60.00;;;;;;6270757;28;20104;-70
2023/08/14 15:19:39;;;;;;;0.30;0.20;;;21.60;60.00;;;;;;6269736;28;20033;-70
2023/08/14 15:22:40;;;;;;;0.45;0.40;;;21.60;60.00;;;;;;6270735;28;20110;-70
2023/08/14 15:25:41;;;;;;;0.40;0.40;;;21.60;60.00;;;;;;6270808;28;20490;-70
2023/08/14 15:28:42;;;;;;;0.40;0.40;;;21.60;60.00;;;;;;6269662;28;20090;-70
2023/08/14 15:31:42;;;;;;;0.40;0.30;;;21.60;60.00;;;;;;6269594;28;20041;-70
2023/08/14 15:34:43;;;;;;;1.85;0.40;;;21.60;60.00;;;;;;6269036;28;20521;-70
2023/08/14 15:37:44;;;;;;;0.93;0.30;;;21.60;60.00;;;;;;6270816;28;20048;-70
2023/08/14 15:40:47;;;;;;;0.30;0.30;;;21.60;60.00;;;;;;6270739;28;20032;-70
2023/08/14 15:43:48;;;;;;;0.30;0.20;;;21.60;60.10;;;;;;6270600;28;20082;-70
2023/08/14 15:46:48;;;;;;;0.30;0.30;;;21.60;60.00;;;;;;6270555;28;20371;-70